sensor_id;sensor_type;location;lat;lon;timestamp;pressure;altitude;pressure_sealevel;temperature;humidity
48156;BME280;35568;48.104;11.782;2022-12-20T00:01:47;96050.81;;;3.86;49.35
48156;BME280;35568;48.104;11.782;2022-12-20T00:04:14;96049.65;;;3.70;49.34
48156;BME280;35568;48.104;11.782;2022-12-20T00:06:41;96049.52;;;3.51;49.05
48156;BME280;35568;48.104;11.782;2022-12-20T00:09:10;96049.24;;;3.46;49.34
48156;BME280;35568;48.104;11.782;2022-12-20T00:11:38;96052.92;;;3.08;49.58
48156;BME280;35568;48.104;11.782;2022-12-20T00:14:06;96050.47;;;3.28;49.73
48156;BME280;35568;48.104;11.782;2022-12-20T00:16:34;96042.90;;;3.40;50.24
48156;BME280;35568;48.104;11.782;2022-12-20T00:19:03;96037.22;;;3.23;49.87
48156;BME280;35568;48.104;11.782;2022-12-20T00:21:33;96039.09;;;3.64;49.47
48156;BME280;35568;48.104;11.782;2022-12-20T00:24:00;96038.09;;;3.84;49.35
48156;BME280;35568;48.104;11.782;2022-12-20T00:26:29;96035.72;;;3.44;49.76
48156;BME280;35568;48.104;11.782;2022-12-20T00:28:58;96039.51;;;3.62;49.11
48156;BME280;35568;48.104;11.782;2022-12-20T00:31:26;96044.60;;;3.17;49.49
48156;BME280;35568;48.104;11.782;2022-12-20T00:33:54;96045.92;;;3.42;49.64
48156;BME280;35568;48.104;11.782;2022-12-20T00:36:23;96034.94;;;3.59;49.64
48156;BME280;35568;48.104;11.782;2022-12-20T00:38:53;96036.02;;;3.74;49.51
48156;BME280;35568;48.104;11.782;2022-12-20T00:41:22;96028.66;;;3.31;49.71
48156;BME280;35568;48.104;11.782;2022-12-20T00:43:50;96021.55;;;3.49;49.95
48156;BME280;35568;48.104;11.782;2022-12-20T00:46:18;96020.78;;;3.33;50.26
48156;BME280;35568;48.104;11.782;2022-12-20T00:48:46;96020.52;;;3.41;49.85
48156;BME280;35568;48.104;11.782;2022-12-20T00:51:14;96021.20;;;3.32;50.30
48156;BME280;35568;48.104;11.782;2022-12-20T00:53:42;96021.04;;;3.45;50.30
48156;BME280;35568;48.104;11.782;2022-12-20T00:56:09;96017.01;;;3.49;50.00
48156;BME280;35568;48.104;11.782;2022-12-20T00:58:38;96016.78;;;3.84;50.22
48156;BME280;35568;48.104;11.782;2022-12-20T01:01:14;96017.48;;;3.18;50.28
48156;BME280;35568;48.104;11.782;2022-12-20T01:03:41;96020.60;;;3.16;50.95
48156;BME280;35568;48.104;11.782;2022-12-20T01:06:09;96026.00;;;2.77;51.07
48156;BME280;35568;48.104;11.782;2022-12-20T01:08:36;96027.20;;;3.18;51.08
48156;BME280;35568;48.104;11.782;2022-12-20T01:11:05;96024.46;;;3.53;50.71
48156;BME280;35568;48.104;11.782;2022-12-20T01:13:35;96029.16;;;3.41;50.02
48156;BME280;35568;48.104;11.782;2022-12-20T01:16:04;96025.65;;;3.10;50.82
48156;BME280;35568;48.104;11.782;2022-12-20T01:18:31;96023.32;;;2.92;51.24
48156;BME280;35568;48.104;11.782;2022-12-20T01:21:01;96021.07;;;3.38;50.96
48156;BME280;35568;48.104;11.782;2022-12-20T01:23:28;96026.12;;;2.97;51.16
48156;BME280;35568;48.104;11.782;2022-12-20T01:25:57;96027.12;;;3.05;51.33
48156;BME280;35568;48.104;11.782;2022-12-20T01:28:25;96023.00;;;3.53;51.10
48156;BME280;35568;48.104;11.782;2022-12-20T01:30:52;96021.97;;;3.35;50.29
48156;BME280;35568;48.104;11.782;2022-12-20T01:33:18;96028.75;;;2.68;51.50
48156;BME280;35568;48.104;11.782;2022-12-20T01:35:54;96027.85;;;2.49;52.27
48156;BME280;35568;48.104;11.782;2022-12-20T01:38:22;96024.36;;;2.40;52.25
48156;BME280;35568;48.104;11.782;2022-12-20T01:40:50;96015.26;;;2.84;51.86
48156;BME280;35568;48.104;11.782;2022-12-20T01:43:19;96009.22;;;3.05;51.79
48156;BME280;35568;48.104;11.782;2022-12-20T01:45:46;96003.03;;;2.68;51.65
48156;BME280;35568;48.104;11.782;2022-12-20T01:48:15;96004.20;;;2.85;51.58
48156;BME280;35568;48.104;11.782;2022-12-20T01:50:44;96002.66;;;2.54;52.11
48156;BME280;35568;48.104;11.782;2022-12-20T01:53:11;96006.33;;;2.71;51.58
48156;BME280;35568;48.104;11.782;2022-12-20T01:55:38;96006.24;;;2.98;51.59
48156;BME280;35568;48.104;11.782;2022-12-20T01:58:07;96008.89;;;3.06;51.53
48156;BME280;35568;48.104;11.782;2022-12-20T02:00:35;96006.14;;;3.08;51.83
48156;BME280;35568;48.104;11.782;2022-12-20T02:03:04;96011.32;;;2.95;51.60
48156;BME280;35568;48.104;11.782;2022-12-20T02:05:35;96010.86;;;2.91;51.81
48156;BME280;35568;48.104;11.782;2022-12-20T02:08:03;96004.40;;;2.79;51.58
48156;BME280;35568;48.104;11.782;2022-12-20T02:10:51;96002.34;;;2.85;51.63
48156;BME280;35568;48.104;11.782;2022-12-20T02:13:30;95999.50;;;3.09;51.49
48156;BME280;35568;48.104;11.782;2022-12-20T02:16:04;95997.29;;;3.00;51.62
48156;BME280;35568;48.104;11.782;2022-12-20T02:18:36;95995.15;;;2.97;52.02
48156;BME280;35568;48.104;11.782;2022-12-20T02:21:13;95985.77;;;3.21;51.53
48156;BME280;35568;48.104;11.782;2022-12-20T02:23:57;95987.40;;;3.35;51.41
48156;BME280;35568;48.104;11.782;2022-12-20T02:26:44;95992.08;;;3.18;51.16
48156;BME280;35568;48.104;11.782;2022-12-20T02:29:24;95997.86;;;3.24;50.68
48156;BME280;35568;48.104;11.782;2022-12-20T02:32:00;96001.53;;;3.32;50.95
48156;BME280;35568;48.104;11.782;2022-12-20T02:34:30;95997.93;;;3.46;50.75
48156;BME280;35568;48.104;11.782;2022-12-20T02:36:58;95993.87;;;3.58;50.56
48156;BME280;35568;48.104;11.782;2022-12-20T02:39:28;95990.65;;;3.43;50.15
48156;BME280;35568;48.104;11.782;2022-12-20T02:41:58;95992.81;;;3.29;50.49
48156;BME280;35568;48.104;11.782;2022-12-20T02:44:29;95992.75;;;3.67;50.19
48156;BME280;35568;48.104;11.782;2022-12-20T02:46:59;95995.64;;;3.55;50.69
48156;BME280;35568;48.104;11.782;2022-12-20T02:49:31;96001.41;;;3.68;49.90
48156;BME280;35568;48.104;11.782;2022-12-20T02:52:00;95999.22;;;3.61;49.89
48156;BME280;35568;48.104;11.782;2022-12-20T02:54:29;95995.71;;;3.56;50.11
48156;BME280;35568;48.104;11.782;2022-12-20T02:56:59;96000.00;;;3.61;50.51
48156;BME280;35568;48.104;11.782;2022-12-20T02:59:31;96001.43;;;3.16;50.60
48156;BME280;35568;48.104;11.782;2022-12-20T03:02:01;96001.13;;;3.32;50.96
48156;BME280;35568;48.104;11.782;2022-12-20T03:04:30;95994.35;;;2.06;50.94
48156;BME280;35568;48.104;11.782;2022-12-20T03:07:02;95987.43;;;3.27;50.29
48156;BME280;35568;48.104;11.782;2022-12-20T03:09:31;95974.66;;;3.26;50.55
48156;BME280;35568;48.104;11.782;2022-12-20T03:11:58;95966.77;;;3.43;50.92
48156;BME280;35568;48.104;11.782;2022-12-20T03:14:26;95972.88;;;3.31;50.65
48156;BME280;35568;48.104;11.782;2022-12-20T03:16:52;95974.82;;;3.43;50.66
48156;BME280;35568;48.104;11.782;2022-12-20T03:19:19;95979.56;;;3.66;50.45
48156;BME280;35568;48.104;11.782;2022-12-20T03:21:46;95975.36;;;3.63;50.49
48156;BME280;35568;48.104;11.782;2022-12-20T03:24:13;95975.77;;;3.41;50.66
48156;BME280;35568;48.104;11.782;2022-12-20T03:26:40;95985.08;;;3.23;50.91
48156;BME280;35568;48.104;11.782;2022-12-20T03:29:09;95986.26;;;3.08;50.98
48156;BME280;35568;48.104;11.782;2022-12-20T03:31:36;95987.84;;;3.61;51.23
48156;BME280;35568;48.104;11.782;2022-12-20T03:34:04;95989.40;;;3.68;50.77
48156;BME280;35568;48.104;11.782;2022-12-20T03:36:31;95991.72;;;3.76;50.54
48156;BME280;35568;48.104;11.782;2022-12-20T03:38:58;95983.91;;;3.62;50.74
48156;BME280;35568;48.104;11.782;2022-12-20T03:41:25;95979.41;;;3.29;50.63
48156;BME280;35568;48.104;11.782;2022-12-20T03:43:52;95973.33;;;3.64;50.91
48156;BME280;35568;48.104;11.782;2022-12-20T03:46:19;95964.51;;;3.85;50.73
48156;BME280;35568;48.104;11.782;2022-12-20T03:48:46;95956.16;;;3.65;50.90
48156;BME280;35568;48.104;11.782;2022-12-20T03:51:13;95948.20;;;3.89;51.02
48156;BME280;35568;48.104;11.782;2022-12-20T03:53:40;95946.74;;;3.71;50.94
48156;BME280;35568;48.104;11.782;2022-12-20T03:56:07;95944.63;;;3.37;50.94
48156;BME280;35568;48.104;11.782;2022-12-20T03:58:33;95937.50;;;3.55;51.23
48156;BME280;35568;48.104;11.782;2022-12-20T04:03:00;95937.09;;;3.43;50.85
48156;BME280;35568;48.104;11.782;2022-12-20T04:05:27;95933.43;;;3.19;51.25
48156;BME280;35568;48.104;11.782;2022-12-20T04:07:54;95935.51;;;3.23;51.41
48156;BME280;35568;48.104;11.782;2022-12-20T04:10:21;95945.98;;;2.81;51.59
48156;BME280;35568;48.104;11.782;2022-12-20T04:12:48;95943.05;;;3.03;51.87
48156;BME280;35568;48.104;11.782;2022-12-20T04:15:15;95940.82;;;3.17;51.85
48156;BME280;35568;48.104;11.782;2022-12-20T04:17:43;95947.96;;;3.10;51.24
48156;BME280;35568;48.104;11.782;2022-12-20T04:20:13;95947.05;;;3.07;51.71
48156;BME280;35568;48.104;11.782;2022-12-20T04:22:41;95946.77;;;3.66;51.92
48156;BME280;35568;48.104;11.782;2022-12-20T04:25:08;95953.79;;;3.48;51.35
48156;BME280;35568;48.104;11.782;2022-12-20T04:27:34;95952.03;;;3.38;51.45
48156;BME280;35568;48.104;11.782;2022-12-20T04:30:01;95953.10;;;3.64;51.13
48156;BME280;35568;48.104;11.782;2022-12-20T04:32:28;95952.84;;;3.47;50.67
48156;BME280;35568;48.104;11.782;2022-12-20T04:34:55;95945.24;;;3.59;51.16
48156;BME280;35568;48.104;11.782;2022-12-20T04:37:22;95946.67;;;3.75;50.57
48156;BME280;35568;48.104;11.782;2022-12-20T04:39:49;95944.45;;;3.62;50.69
48156;BME280;35568;48.104;11.782;2022-12-20T04:42:16;95940.32;;;3.80;50.87
48156;BME280;35568;48.104;11.782;2022-12-20T04:44:43;95940.86;;;3.98;50.58
48156;BME280;35568;48.104;11.782;2022-12-20T04:47:09;95942.25;;;3.77;50.78
48156;BME280;35568;48.104;11.782;2022-12-20T04:49:36;95939.26;;;4.15;50.23
48156;BME280;35568;48.104;11.782;2022-12-20T04:52:04;95940.88;;;4.09;49.84
48156;BME280;35568;48.104;11.782;2022-12-20T04:54:31;95941.29;;;3.66;50.50
48156;BME280;35568;48.104;11.782;2022-12-20T04:56:58;95937.96;;;3.75;50.79
48156;BME280;35568;48.104;11.782;2022-12-20T04:59:24;95932.71;;;4.00;50.71
48156;BME280;35568;48.104;11.782;2022-12-20T05:01:51;95929.32;;;3.90;50.04
48156;BME280;35568;48.104;11.782;2022-12-20T05:04:18;95918.58;;;3.95;50.51
48156;BME280;35568;48.104;11.782;2022-12-20T05:06:45;95914.25;;;3.96;50.52
48156;BME280;35568;48.104;11.782;2022-12-20T05:09:12;95917.95;;;3.73;50.36
48156;BME280;35568;48.104;11.782;2022-12-20T05:11:39;95915.13;;;4.14;50.46
48156;BME280;35568;48.104;11.782;2022-12-20T05:14:05;95908.22;;;4.20;50.51
48156;BME280;35568;48.104;11.782;2022-12-20T05:16:32;95903.38;;;4.22;50.29
48156;BME280;35568;48.104;11.782;2022-12-20T05:18:59;95892.20;;;4.14;50.40
48156;BME280;35568;48.104;11.782;2022-12-20T05:21:26;95888.59;;;4.06;50.30
48156;BME280;35568;48.104;11.782;2022-12-20T05:23:53;95887.56;;;4.01;50.45
48156;BME280;35568;48.104;11.782;2022-12-20T05:26:20;95886.07;;;3.66;50.05
48156;BME280;35568;48.104;11.782;2022-12-20T05:28:47;95894.74;;;3.24;50.80
48156;BME280;35568;48.104;11.782;2022-12-20T05:31:14;95891.36;;;3.34;51.18
48156;BME280;35568;48.104;11.782;2022-12-20T05:33:41;95890.02;;;3.52;50.72
48156;BME280;35568;48.104;11.782;2022-12-20T05:36:08;95887.96;;;3.70;50.82
48156;BME280;35568;48.104;11.782;2022-12-20T05:38:35;95891.11;;;3.35;50.75
48156;BME280;35568;48.104;11.782;2022-12-20T05:41:01;95891.52;;;3.54;51.13
48156;BME280;35568;48.104;11.782;2022-12-20T05:43:28;95888.29;;;3.08;51.26
48156;BME280;35568;48.104;11.782;2022-12-20T05:45:55;95882.18;;;3.66;51.27
48156;BME280;35568;48.104;11.782;2022-12-20T05:48:22;95879.15;;;3.84;50.98
48156;BME280;35568;48.104;11.782;2022-12-20T05:50:49;95876.04;;;4.12;50.58
48156;BME280;35568;48.104;11.782;2022-12-20T05:53:16;95881.95;;;3.95;50.37
48156;BME280;35568;48.104;11.782;2022-12-20T05:55:44;95883.72;;;4.31;50.11
48156;BME280;35568;48.104;11.782;2022-12-20T05:58:11;95880.20;;;3.84;49.64
48156;BME280;35568;48.104;11.782;2022-12-20T06:00:38;95872.72;;;4.10;50.20
48156;BME280;35568;48.104;11.782;2022-12-20T06:03:06;95862.11;;;4.05;50.27
48156;BME280;35568;48.104;11.782;2022-12-20T06:05:34;95858.21;;;3.97;49.89
48156;BME280;35568;48.104;11.782;2022-12-20T06:08:02;95856.23;;;3.20;50.41
48156;BME280;35568;48.104;11.782;2022-12-20T06:10:30;95853.00;;;3.84;50.14
48156;BME280;35568;48.104;11.782;2022-12-20T06:12:58;95851.08;;;3.79;50.76
48156;BME280;35568;48.104;11.782;2022-12-20T06:15:25;95858.43;;;3.64;50.83
48156;BME280;35568;48.104;11.782;2022-12-20T06:17:52;95862.04;;;3.80;50.54
48156;BME280;35568;48.104;11.782;2022-12-20T06:20:19;95868.05;;;3.71;50.69
48156;BME280;35568;48.104;11.782;2022-12-20T06:22:46;95869.94;;;3.91;50.69
48156;BME280;35568;48.104;11.782;2022-12-20T06:25:13;95864.68;;;3.99;50.20
48156;BME280;35568;48.104;11.782;2022-12-20T06:27:40;95866.51;;;3.72;50.56
48156;BME280;35568;48.104;11.782;2022-12-20T06:30:10;95862.69;;;3.67;50.91
48156;BME280;35568;48.104;11.782;2022-12-20T06:32:37;95863.62;;;3.76;50.66
48156;BME280;35568;48.104;11.782;2022-12-20T06:35:05;95863.68;;;3.77;50.69
48156;BME280;35568;48.104;11.782;2022-12-20T06:37:32;95863.64;;;3.80;50.92
48156;BME280;35568;48.104;11.782;2022-12-20T06:39:59;95865.21;;;3.78;50.75
48156;BME280;35568;48.104;11.782;2022-12-20T06:42:26;95863.91;;;3.86;51.08
48156;BME280;35568;48.104;11.782;2022-12-20T06:44:53;95863.29;;;3.88;50.98
48156;BME280;35568;48.104;11.782;2022-12-20T06:47:20;95863.89;;;3.50;51.09
48156;BME280;35568;48.104;11.782;2022-12-20T06:49:47;95866.14;;;3.63;51.40
48156;BME280;35568;48.104;11.782;2022-12-20T06:52:14;95865.05;;;3.46;51.40
48156;BME280;35568;48.104;11.782;2022-12-20T06:54:41;95866.41;;;3.39;51.57
48156;BME280;35568;48.104;11.782;2022-12-20T06:57:08;95863.56;;;3.52;51.58
48156;BME280;35568;48.104;11.782;2022-12-20T06:59:35;95857.06;;;3.57;51.46
48156;BME280;35568;48.104;11.782;2022-12-20T07:02:02;95858.18;;;3.80;51.41
48156;BME280;35568;48.104;11.782;2022-12-20T07:04:29;95859.51;;;3.97;51.17
48156;BME280;35568;48.104;11.782;2022-12-20T07:06:57;95859.66;;;3.97;51.02
48156;BME280;35568;48.104;11.782;2022-12-20T07:09:24;95858.36;;;4.08;50.23
48156;BME280;35568;48.104;11.782;2022-12-20T07:11:51;95853.52;;;3.81;50.50
48156;BME280;35568;48.104;11.782;2022-12-20T07:14:18;95853.92;;;4.01;50.45
48156;BME280;35568;48.104;11.782;2022-12-20T07:16:45;95853.00;;;3.80;50.94
48156;BME280;35568;48.104;11.782;2022-12-20T07:19:13;95849.74;;;3.59;51.25
48156;BME280;35568;48.104;11.782;2022-12-20T07:21:40;95849.65;;;3.44;51.49
48156;BME280;35568;48.104;11.782;2022-12-20T07:24:07;95849.60;;;3.29;51.55
48156;BME280;35568;48.104;11.782;2022-12-20T07:26:34;95848.20;;;3.42;51.64
48156;BME280;35568;48.104;11.782;2022-12-20T07:29:01;95848.88;;;3.30;51.68
48156;BME280;35568;48.104;11.782;2022-12-20T07:31:28;95852.39;;;3.10;51.82
48156;BME280;35568;48.104;11.782;2022-12-20T07:33:55;95856.30;;;2.98;52.15
48156;BME280;35568;48.104;11.782;2022-12-20T07:36:21;95854.81;;;3.42;52.27
48156;BME280;35568;48.104;11.782;2022-12-20T07:38:48;95854.08;;;3.39;52.38
48156;BME280;35568;48.104;11.782;2022-12-20T07:41:17;95854.27;;;4.52;54.80
48156;BME280;35568;48.104;11.782;2022-12-20T07:43:44;95853.23;;;4.51;51.53
48156;BME280;35568;48.104;11.782;2022-12-20T07:46:13;95855.17;;;4.75;49.90
48156;BME280;35568;48.104;11.782;2022-12-20T07:48:41;95855.53;;;4.89;49.77
48156;BME280;35568;48.104;11.782;2022-12-20T07:51:11;95857.59;;;4.41;49.85
48156;BME280;35568;48.104;11.782;2022-12-20T07:53:41;95857.43;;;4.51;49.84
48156;BME280;35568;48.104;11.782;2022-12-20T07:56:12;95858.63;;;4.60;49.68
48156;BME280;35568;48.104;11.782;2022-12-20T07:58:40;95862.57;;;4.63;49.89
48156;BME280;35568;48.104;11.782;2022-12-20T08:01:09;95866.45;;;4.72;49.51
48156;BME280;35568;48.104;11.782;2022-12-20T08:03:40;95866.01;;;4.41;50.03
48156;BME280;35568;48.104;11.782;2022-12-20T08:06:09;95868.46;;;4.36;50.07
48156;BME280;35568;48.104;11.782;2022-12-20T08:08:40;95863.75;;;5.03;50.32
48156;BME280;35568;48.104;11.782;2022-12-20T08:11:10;95868.28;;;5.21;49.85
48156;BME280;35568;48.104;11.782;2022-12-20T08:13:37;95865.99;;;5.16;50.02
48156;BME280;35568;48.104;11.782;2022-12-20T08:16:06;95869.31;;;4.90;49.52
48156;BME280;35568;48.104;11.782;2022-12-20T08:18:33;95873.93;;;4.92;49.71
48156;BME280;35568;48.104;11.782;2022-12-20T08:21:00;95874.94;;;5.09;49.87
48156;BME280;35568;48.104;11.782;2022-12-20T08:23:27;95873.51;;;5.30;49.47
48156;BME280;35568;48.104;11.782;2022-12-20T08:25:54;95872.04;;;5.28;49.51
48156;BME280;35568;48.104;11.782;2022-12-20T08:28:20;95870.49;;;5.52;49.50
48156;BME280;35568;48.104;11.782;2022-12-20T08:30:47;95866.24;;;5.51;48.75
48156;BME280;35568;48.104;11.782;2022-12-20T08:33:14;95861.14;;;5.65;48.54
48156;BME280;35568;48.104;11.782;2022-12-20T08:35:41;95861.54;;;5.30;48.77
48156;BME280;35568;48.104;11.782;2022-12-20T08:38:08;95855.86;;;5.51;48.27
48156;BME280;35568;48.104;11.782;2022-12-20T08:40:35;95851.00;;;5.63;48.23
48156;BME280;35568;48.104;11.782;2022-12-20T08:43:01;95853.52;;;5.98;48.33
48156;BME280;35568;48.104;11.782;2022-12-20T08:45:28;95854.78;;;5.70;47.70
48156;BME280;35568;48.104;11.782;2022-12-20T08:47:55;95862.09;;;5.58;48.17
48156;BME280;35568;48.104;11.782;2022-12-20T08:50:22;95864.18;;;5.79;47.66
48156;BME280;35568;48.104;11.782;2022-12-20T08:52:49;95871.21;;;5.76;47.82
48156;BME280;35568;48.104;11.782;2022-12-20T08:55:15;95875.14;;;6.04;47.86
48156;BME280;35568;48.104;11.782;2022-12-20T08:57:42;95869.80;;;5.89;48.11
48156;BME280;35568;48.104;11.782;2022-12-20T09:00:10;95863.83;;;6.03;47.88
48156;BME280;35568;48.104;11.782;2022-12-20T09:02:37;95861.43;;;6.09;47.44
48156;BME280;35568;48.104;11.782;2022-12-20T09:05:05;95860.65;;;6.21;47.25
48156;BME280;35568;48.104;11.782;2022-12-20T09:07:32;95861.38;;;6.20;47.21
48156;BME280;35568;48.104;11.782;2022-12-20T09:09:59;95863.97;;;6.26;47.19
48156;BME280;35568;48.104;11.782;2022-12-20T09:12:26;95866.51;;;6.22;47.33
48156;BME280;35568;48.104;11.782;2022-12-20T09:14:53;95863.92;;;6.49;47.55
48156;BME280;35568;48.104;11.782;2022-12-20T09:17:20;95857.42;;;6.50;47.48
48156;BME280;35568;48.104;11.782;2022-12-20T09:19:47;95855.85;;;6.04;47.64
48156;BME280;35568;48.104;11.782;2022-12-20T09:22:14;95858.74;;;5.70;47.79
48156;BME280;35568;48.104;11.782;2022-12-20T09:24:41;95857.37;;;5.98;48.25
48156;BME280;35568;48.104;11.782;2022-12-20T09:27:08;95857.19;;;6.42;48.28
48156;BME280;35568;48.104;11.782;2022-12-20T09:29:35;95850.93;;;6.73;47.50
48156;BME280;35568;48.104;11.782;2022-12-20T09:32:02;95847.69;;;6.78;47.39
48156;BME280;35568;48.104;11.782;2022-12-20T09:34:29;95844.31;;;6.91;46.92
48156;BME280;35568;48.104;11.782;2022-12-20T09:36:56;95840.40;;;6.87;46.77
48156;BME280;35568;48.104;11.782;2022-12-20T09:39:23;95833.17;;;6.29;47.20
48156;BME280;35568;48.104;11.782;2022-12-20T09:41:50;95825.20;;;6.42;47.88
48156;BME280;35568;48.104;11.782;2022-12-20T09:44:21;95821.84;;;6.36;47.24
48156;BME280;35568;48.104;11.782;2022-12-20T09:46:53;95817.07;;;6.62;47.25
48156;BME280;35568;48.104;11.782;2022-12-20T09:49:24;95817.36;;;6.32;47.15
48156;BME280;35568;48.104;11.782;2022-12-20T09:52:08;95812.86;;;6.04;47.36
48156;BME280;35568;48.104;11.782;2022-12-20T09:54:45;95812.61;;;6.22;47.16
48156;BME280;35568;48.104;11.782;2022-12-20T09:57:23;95813.55;;;6.34;47.29
48156;BME280;35568;48.104;11.782;2022-12-20T09:59:55;95809.32;;;6.45;47.65
48156;BME280;35568;48.104;11.782;2022-12-20T10:02:25;95810.31;;;6.24;47.30
48156;BME280;35568;48.104;11.782;2022-12-20T10:04:52;95810.39;;;6.31;47.78
48156;BME280;35568;48.104;11.782;2022-12-20T10:07:30;95806.02;;;6.30;47.40
48156;BME280;35568;48.104;11.782;2022-12-20T10:10:13;95796.96;;;6.53;47.43
48156;BME280;35568;48.104;11.782;2022-12-20T10:12:49;95789.04;;;6.79;46.94
48156;BME280;35568;48.104;11.782;2022-12-20T10:15:22;95784.76;;;6.36;46.92
48156;BME280;35568;48.104;11.782;2022-12-20T10:18:02;95785.15;;;6.55;46.98
48156;BME280;35568;48.104;11.782;2022-12-20T10:20:44;95783.96;;;7.11;46.87
48156;BME280;35568;48.104;11.782;2022-12-20T10:23:18;95782.29;;;7.10;46.83
48156;BME280;35568;48.104;11.782;2022-12-20T10:25:50;95777.95;;;6.96;46.68
48156;BME280;35568;48.104;11.782;2022-12-20T10:28:19;95775.24;;;6.68;46.77
48156;BME280;35568;48.104;11.782;2022-12-20T10:30:49;95772.05;;;7.08;46.74
48156;BME280;35568;48.104;11.782;2022-12-20T10:33:19;95767.54;;;6.97;46.73
48156;BME280;35568;48.104;11.782;2022-12-20T10:35:47;95767.94;;;6.81;46.64
48156;BME280;35568;48.104;11.782;2022-12-20T10:38:15;95766.56;;;7.47;46.76
48156;BME280;35568;48.104;11.782;2022-12-20T10:40:44;95761.60;;;7.42;46.43
48156;BME280;35568;48.104;11.782;2022-12-20T10:43:15;95753.75;;;7.47;45.89
48156;BME280;35568;48.104;11.782;2022-12-20T10:45:45;95754.05;;;7.85;45.40
48156;BME280;35568;48.104;11.782;2022-12-20T10:48:27;95749.26;;;7.89;45.86
48156;BME280;35568;48.104;11.782;2022-12-20T10:50:56;95743.31;;;8.01;45.61
48156;BME280;35568;48.104;11.782;2022-12-20T10:53:23;95743.38;;;8.02;45.01
48156;BME280;35568;48.104;11.782;2022-12-20T10:55:52;95737.08;;;8.38;44.69
48156;BME280;35568;48.104;11.782;2022-12-20T10:58:30;95733.03;;;8.33;44.90
48156;BME280;35568;48.104;11.782;2022-12-20T11:01:05;95727.58;;;8.31;44.85
48156;BME280;35568;48.104;11.782;2022-12-20T11:03:49;95721.92;;;8.21;45.08
48156;BME280;35568;48.104;11.782;2022-12-20T11:06:18;95717.27;;;8.37;44.99
48156;BME280;35568;48.104;11.782;2022-12-20T11:08:45;95710.46;;;8.09;45.24
48156;BME280;35568;48.104;11.782;2022-12-20T11:11:16;95709.05;;;8.52;44.86
48156;BME280;35568;48.104;11.782;2022-12-20T11:13:44;95705.04;;;8.32;45.61
48156;BME280;35568;48.104;11.782;2022-12-20T11:16:33;95701.18;;;8.23;45.59
48156;BME280;35568;48.104;11.782;2022-12-20T11:19:14;95696.84;;;8.42;45.23
48156;BME280;35568;48.104;11.782;2022-12-20T11:21:55;95697.59;;;8.30;44.79
48156;BME280;35568;48.104;11.782;2022-12-20T11:24:31;95691.00;;;8.25;44.64
48156;BME280;35568;48.104;11.782;2022-12-20T11:27:12;95690.41;;;8.40;44.67
48156;BME280;35568;48.104;11.782;2022-12-20T11:29:53;95688.36;;;8.07;44.87
48156;BME280;35568;48.104;11.782;2022-12-20T11:32:35;95686.09;;;7.51;45.74
48156;BME280;35568;48.104;11.782;2022-12-20T11:35:10;95682.22;;;7.31;46.30
48156;BME280;35568;48.104;11.782;2022-12-20T11:37:47;95681.58;;;7.11;46.21
48156;BME280;35568;48.104;11.782;2022-12-20T11:40:25;95675.27;;;7.08;46.26
48156;BME280;35568;48.104;11.782;2022-12-20T11:43:09;95674.12;;;7.30;46.05
48156;BME280;35568;48.104;11.782;2022-12-20T11:45:50;95672.61;;;7.65;45.81
48156;BME280;35568;48.104;11.782;2022-12-20T11:48:33;95675.94;;;7.90;45.42
48156;BME280;35568;48.104;11.782;2022-12-20T11:51:08;95674.54;;;8.22;45.15
48156;BME280;35568;48.104;11.782;2022-12-20T11:53:41;95670.60;;;8.06;45.53
48156;BME280;35568;48.104;11.782;2022-12-20T11:56:13;95660.23;;;8.17;45.10
48156;BME280;35568;48.104;11.782;2022-12-20T11:58:49;95651.98;;;8.03;45.08
48156;BME280;35568;48.104;11.782;2022-12-20T12:01:21;95636.79;;;8.23;45.55
48156;BME280;35568;48.104;11.782;2022-12-20T12:03:59;95632.04;;;8.04;45.54
48156;BME280;35568;48.104;11.782;2022-12-20T12:06:32;95632.04;;;8.25;45.13
48156;BME280;35568;48.104;11.782;2022-12-20T12:09:16;95628.75;;;8.32;45.25
48156;BME280;35568;48.104;11.782;2022-12-20T12:11:49;95624.32;;;8.23;45.17
48156;BME280;35568;48.104;11.782;2022-12-20T12:14:30;95617.45;;;8.59;45.33
48156;BME280;35568;48.104;11.782;2022-12-20T12:17:07;95609.09;;;8.36;45.32
48156;BME280;35568;48.104;11.782;2022-12-20T12:19:36;95608.62;;;8.22;45.18
48156;BME280;35568;48.104;11.782;2022-12-20T12:22:12;95606.96;;;8.24;45.25
48156;BME280;35568;48.104;11.782;2022-12-20T12:24:45;95608.76;;;8.35;45.32
48156;BME280;35568;48.104;11.782;2022-12-20T12:27:22;95610.71;;;8.01;45.59
48156;BME280;35568;48.104;11.782;2022-12-20T12:29:50;95607.86;;;8.08;45.96
48156;BME280;35568;48.104;11.782;2022-12-20T12:32:21;95603.49;;;7.93;45.95
48156;BME280;35568;48.104;11.782;2022-12-20T12:35:02;95604.48;;;7.74;45.38
48156;BME280;35568;48.104;11.782;2022-12-20T12:37:42;95604.80;;;7.32;45.63
48156;BME280;35568;48.104;11.782;2022-12-20T12:40:30;95603.63;;;7.69;45.93
48156;BME280;35568;48.104;11.782;2022-12-20T12:43:18;95610.11;;;7.54;45.84
48156;BME280;35568;48.104;11.782;2022-12-20T12:45:54;95606.38;;;7.49;45.77
48156;BME280;35568;48.104;11.782;2022-12-20T12:48:26;95601.44;;;7.81;45.78
48156;BME280;35568;48.104;11.782;2022-12-20T12:50:59;95609.45;;;8.01;45.32
48156;BME280;35568;48.104;11.782;2022-12-20T12:53:33;95611.19;;;7.89;45.28
48156;BME280;35568;48.104;11.782;2022-12-20T12:56:30;95608.55;;;7.74;45.36
48156;BME280;35568;48.104;11.782;2022-12-20T12:59:19;95610.57;;;7.61;45.13
48156;BME280;35568;48.104;11.782;2022-12-20T13:01:48;95600.09;;;7.98;45.75
48156;BME280;35568;48.104;11.782;2022-12-20T13:04:26;95591.20;;;7.73;45.82
48156;BME280;35568;48.104;11.782;2022-12-20T13:06:59;95590.09;;;7.28;45.91
48156;BME280;35568;48.104;11.782;2022-12-20T13:09:45;95589.81;;;7.17;45.90
48156;BME280;35568;48.104;11.782;2022-12-20T13:12:54;95591.27;;;7.38;46.11
48156;BME280;35568;48.104;11.782;2022-12-20T13:16:27;95592.40;;;7.28;46.24
48156;BME280;35568;48.104;11.782;2022-12-20T13:19:01;95588.28;;;7.16;45.74